logo



Minimumtemperatur heute 10.6     Maximumtemperatur heute 17.1
Datum Zeit
MEZ
Lufttemperatur
C
Windrichtung
Grad
Wind Mittel
Km/h
Wind Min
Km/h
Wind Max
Km/h
rel. Feuchte
%
2018-05-22 22:00:00 13.1 121 0.9 1.9 5.3 94
2018-05-22 21:55:00 13.4 127 0.5 0.7 2.7 94
2018-05-22 21:50:00 13.5 109 0.5 0.1 5.2 94
2018-05-22 21:45:00 14.1 287 1.2 2.0 6.5 95
2018-05-22 21:40:00 14.0 318 0.9 0.4 5.8 95
2018-05-22 21:35:00 13.3 246 0.2 0.0 2.0 94
2018-05-22 21:30:00 13.5 146 0.2 0.0 2.2 94
2018-05-22 21:25:00 13.5 271 0.4 0.0 4.0 94
2018-05-22 21:20:00 13.1 58 0.2 0.0 2.1 94
2018-05-22 21:15:00 13.0 49 0.5 0.7 2.9 94
2018-05-22 21:10:00 13.0 57 0.1 0.0 1.5 94
2018-05-22 21:05:00 13.1 128 0.6 0.3 3.9 94
2018-05-22 21:00:00 13.0 124 0.8 2.0 4.2 94
2018-05-22 20:55:00 13.2 119 0.3 0.0 2.5 93
2018-05-22 20:50:00 13.3 145 0.0 0.0 0.4 93
2018-05-22 20:45:00 13.3 145 0.3 0.1 2.3 93
2018-05-22 20:40:00 13.6 154 0.3 0.5 2.1 93
2018-05-22 20:35:00 13.6 114 0.1 0.0 0.9 93
2018-05-22 20:30:00 13.8 49 0.1 0.0 1.9 93
2018-05-22 20:25:00 13.9 357 0.1 0.0 1.5 93
2018-05-22 20:20:00 13.9 229 0.4 0.6 1.9 93
2018-05-22 20:15:00 13.8 213 0.3 0.5 2.0 93
2018-05-22 20:10:00 13.7 244 0.1 0.0 1.4 92
2018-05-22 20:05:00 13.9 130 0.1 0.0 0.7 92
2018-05-22 20:00:00 14.0 77 0.1 0.0 1.4 92
2018-05-22 19:55:00 14.0 67 0.1 0.0 1.1 92
2018-05-22 19:50:00 14.0 117 0.4 0.1 2.9 92
2018-05-22 19:45:00 14.2 121 0.5 0.0 2.9 91
2018-05-22 19:40:00 14.3 166 0.0 0.0 0.9 91
2018-05-22 19:35:00 14.5 203 0.1 0.0 1.8 91
2018-05-22 19:30:00 14.6 151 0.5 1.0 2.7 91
2018-05-22 19:25:00 15.0 118 0.3 0.1 1.9 91
2018-05-22 19:20:00 15.1 65 0.2 0.0 1.7 90
2018-05-22 19:15:00 15.4 120 0.4 0.0 2.4 89
2018-05-22 19:10:00 15.8 165 0.1 0.0 1.7 89
2018-05-22 19:05:00 15.9 131 0.3 0.0 2.0 88
2018-05-22 19:00:00 16.4 113 0.1 0.0 1.3 86
2018-05-22 18:55:00 16.5 20 0.1 0.0 2.1 87
2018-05-22 18:50:00 16.3 155 0.1 0.0 1.0 87
2018-05-22 18:45:00 16.2 160 0.2 0.1 1.9 87
2018-05-22 18:40:00 16.1 237 0.5 0.7 3.1 85
2018-05-22 18:35:00 16.3 233 0.8 1.6 3.8 85
2018-05-22 18:30:00 16.3 257 0.9 2.4 4.5 86
2018-05-22 18:25:00 16.3 237 1.0 1.6 4.8 84
2018-05-22 18:20:00 16.4 274 0.6 1.0 3.2 81
2018-05-22 18:15:00 16.5 241 0.4 0.4 2.5 80
2018-05-22 18:10:00 16.7 276 0.1 0.0 1.3 80
2018-05-22 18:05:00 16.8 284 0.2 0.0 2.1 81
2018-05-22 18:00:00 17.0 284 0.0 0.0 0.2 80
2018-05-22 17:55:00 16.8 327 0.3 0.0 3.0 79
2018-05-22 17:50:00 17.1 266 0.1 0.0 1.8 78
2018-05-22 17:45:00 16.8 275 0.0 0.0 0.0 81
2018-05-22 17:40:00 16.5 276 0.0 0.0 0.0 80
2018-05-22 17:35:00 16.5 269 0.0 0.0 1.1 81
2018-05-22 17:30:00 16.3 251 0.2 0.0 2.4 81
2018-05-22 17:25:00 16.4 207 0.1 0.0 1.4 83
2018-05-22 17:20:00 16.5 159 0.1 0.0 1.9 83
2018-05-22 17:15:00 16.1 271 0.8 0.4 4.2 82
2018-05-22 17:10:00 16.1 248 1.0 2.4 4.6 82
2018-05-22 17:05:00 16.2 262 0.8 1.9 4.2 82
2018-05-22 17:00:00 16.4 289 0.7 1.0 3.5 81
2018-05-22 16:55:00 16.5 284 0.4 0.5 2.3 82
2018-05-22 16:50:00 16.4 279 0.2 0.2 1.2 81
2018-05-22 16:45:00 16.1 262 0.3 0.0 2.1 81
2018-05-22 16:40:00 16.2 237 0.3 0.0 2.6 83
2018-05-22 16:35:00 16.2 69 0.2 0.0 2.0 87
2018-05-22 16:30:00 15.6 233 0.6 0.0 4.5 86
2018-05-22 16:25:00 15.4 242 0.4 0.0 4.2 88
2018-05-22 16:20:00 15.4 181 0.4 0.0 4.1 89
2018-05-22 16:15:00 15.5 160 1.0 1.5 5.2 88
2018-05-22 16:10:00 15.6 199 0.6 0.0 4.3 88
2018-05-22 16:05:00 15.6 267 0.2 0.0 1.5 87
2018-05-22 16:00:00 15.7 344 0.0 0.0 1.4 87
2018-05-22 15:55:00 15.4 279 0.3 0.0 2.4 88
2018-05-22 15:50:00 15.4 281 0.4 0.0 3.8 88
2018-05-22 15:45:00 15.3 316 0.4 0.0 3.6 89
2018-05-22 15:40:00 15.2 300 0.8 1.7 3.8 89
2018-05-22 15:35:00 15.2 312 0.5 0.7 3.1 89
2018-05-22 15:30:00 15.3 274 0.2 0.0 1.3 90
2018-05-22 15:25:00 15.4 294 0.0 0.0 0.8 91
2018-05-22 15:20:00 15.3 164 0.3 0.0 2.2 91
2018-05-22 15:15:00 15.3 40 0.0 0.0 0.5 91
2018-05-22 15:10:00 15.2 157 0.1 0.0 1.6 91
2018-05-22 15:05:00 15.2 147 0.2 0.4 1.4 90
2018-05-22 15:00:00 15.2 145 0.4 0.3 2.9 90
2018-05-22 14:55:00 15.1 130 0.2 0.0 1.9 89
2018-05-22 14:50:00 15.2 90 0.2 0.1 1.3 89
2018-05-22 14:45:00 15.3 109 0.4 0.1 3.4 89
2018-05-22 14:40:00 15.4 128 0.2 0.0 1.5 88
2018-05-22 14:35:00 15.4 175 0.5 0.1 3.7 88
2018-05-22 14:30:00 15.4 130 0.5 0.0 3.3 86
2018-05-22 14:25:00 15.4 194 0.5 0.0 4.0 86
2018-05-22 14:20:00 15.5 248 0.2 0.0 1.8 84
2018-05-22 14:15:00 15.4 259 0.7 0.6 4.4 84
2018-05-22 14:10:00 15.3 266 1.0 2.1 5.3 84
2018-05-22 14:05:00 15.3 247 1.2 2.7 5.1 85
2018-05-22 14:00:00 15.2 255 1.4 2.8 7.1 85
2018-05-22 13:55:00 15.2 243 1.5 3.3 6.9 85
2018-05-22 13:50:00 15.2 264 1.2 2.8 6.0 85
2018-05-22 13:45:00 15.2 260 1.8 5.3 8.1 85
2018-05-22 13:40:00 15.3 266 1.5 4.0 8.3 85
2018-05-22 13:35:00 15.3 257 0.9 1.7 5.2 85
2018-05-22 13:30:00 15.3 247 0.7 1.2 4.6 85
2018-05-22 13:25:00 15.3 229 0.8 1.8 3.8 85
2018-05-22 13:20:00 15.3 228 0.6 1.0 3.4 85
2018-05-22 13:15:00 15.3 241 0.5 0.6 2.9 85
2018-05-22 13:10:00 15.3 242 0.7 0.8 5.2 84
2018-05-22 13:05:00 15.4 250 1.2 2.4 5.9 85
2018-05-22 13:00:00 15.5 248 0.7 1.7 4.1 84
2018-05-22 12:55:00 15.5 264 0.9 2.4 4.4 84
2018-05-22 12:50:00 15.4 266 1.1 2.9 4.5 84
2018-05-22 12:45:00 15.4 255 1.2 2.3 5.3 84
2018-05-22 12:40:00 15.4 274 1.5 3.3 7.8 84
2018-05-22 12:35:00 15.3 252 1.5 3.6 8.3 85
2018-05-22 12:30:00 15.3 240 1.2 3.1 5.8 85
2018-05-22 12:25:00 15.4 251 0.7 0.3 5.0 85
2018-05-22 12:20:00 15.4 268 0.4 0.0 3.0 85
2018-05-22 12:15:00 15.4 248 0.4 0.0 2.3 85
2018-05-22 12:10:00 15.4 274 0.9 1.9 4.0 85
2018-05-22 12:05:00 15.3 292 0.7 0.6 3.2 85
2018-05-22 12:00:00 15.2 237 0.4 0.3 3.2 86
2018-05-22 11:55:00 15.1 284 0.8 2.4 3.6 86
2018-05-22 11:50:00 15.0 280 0.5 0.7 2.5 86
2018-05-22 11:45:00 15.0 272 0.3 0.0 2.3 86
2018-05-22 11:40:00 14.9 291 0.2 0.0 1.5 86
2018-05-22 11:35:00 14.9 269 0.1 0.0 1.6 86
2018-05-22 11:30:00 14.8 259 0.5 1.0 2.7 85
2018-05-22 11:25:00 14.9 221 0.3 0.0 2.7 86
2018-05-22 11:20:00 14.8 259 0.4 0.1 3.0 86
2018-05-22 11:15:00 14.9 296 0.7 0.6 4.0 87
2018-05-22 11:10:00 14.9 301 0.4 0.9 2.3 87
2018-05-22 11:05:00 14.9 270 0.6 1.0 2.9 87
2018-05-22 11:00:00 14.9 299 0.8 2.2 4.1 86
2018-05-22 10:55:00 14.9 301 1.2 3.5 6.0 86
2018-05-22 10:50:00 15.0 293 1.4 4.3 6.9 87
2018-05-22 10:45:00 15.1 283 1.1 1.6 6.5 87
2018-05-22 10:40:00 15.1 293 0.6 1.0 4.4 86
2018-05-22 10:35:00 15.1 315 0.4 0.5 2.8 86
2018-05-22 10:30:00 15.2 248 0.2 0.0 1.9 86
2018-05-22 10:25:00 15.2 293 0.0 0.0 1.2 86
2018-05-22 10:20:00 15.3 227 0.1 0.0 1.8 85
2018-05-22 10:15:00 15.3 231 0.8 1.7 4.9 82
2018-05-22 10:10:00 15.4 265 0.7 1.6 3.3 83
2018-05-22 10:05:00 15.5 263 0.8 1.4 4.8 82
www.zamg.ac.at

klagenfurt@zamg.ac.at